Time;durP1;ratioP1;P1;durP2;ratioP2;P2;SDS_P1;SDS_P2;PMS_P1;PMS_P2;Temp;Humidity;BMP_temperature;BMP_pressure;BME280_temperature;BME280_humidity;BME280_pressure;Samples;Min_cycle;Max_cycle;Signal;HPM_P1;HPM_P2
2023/04/07 00:02:05;;;;;;;2.27;2.07;;;17.20;58.00;;;;;;5047663;28;20645;-45
2023/04/07 00:04:37;;;;;;;2.13;1.73;;;17.20;58.00;;;;;;5042080;28;20213;-45
2023/04/07 00:07:10;;;;;;;2.43;2.10;;;17.20;58.00;;;;;;5047600;28;20200;-45
2023/04/07 00:09:41;;;;;;;2.80;2.43;;;17.10;58.00;;;;;;5033158;28;20667;-45
2023/04/07 00:12:12;;;;;;;2.67;2.47;;;17.20;58.10;;;;;;5051355;28;20194;-45
2023/04/07 00:14:41;;;;;;;2.70;2.40;;;17.20;58.10;;;;;;5049117;28;20203;-45
2023/04/07 00:17:08;;;;;;;2.93;2.40;;;17.10;58.10;;;;;;5049000;28;20260;-45
2023/04/07 00:19:38;;;;;;;3.33;2.77;;;17.10;58.00;;;;;;5034701;28;20246;-45
2023/04/07 00:22:14;;;;;;;3.20;2.80;;;17.20;58.10;;;;;;5051978;28;20292;-45
2023/04/07 00:24:48;;;;;;;3.17;2.67;;;17.20;58.10;;;;;;5055197;28;20194;-45
2023/04/07 00:27:25;;;;;;;3.03;2.70;;;17.10;58.10;;;;;;5048409;28;20228;-45
2023/04/07 00:29:55;;;;;;;3.03;2.57;;;17.10;58.10;;;;;;5035545;28;20208;-45
2023/04/07 00:32:25;;;;;;;4.40;2.60;;;17.10;58.10;;;;;;5051185;28;20272;-45
2023/04/07 00:34:57;;;;;;;4.13;3.00;;;17.10;58.10;;;;;;5034015;28;20202;-45
2023/04/07 00:37:30;;;;;;;3.30;3.00;;;17.10;58.10;;;;;;5051265;28;20206;-46
2023/04/07 00:40:01;;;;;;;4.27;3.17;;;17.10;58.10;;;;;;5056448;28;20214;-45
2023/04/07 00:42:30;;;;;;;3.50;3.10;;;17.10;58.10;;;;;;5031314;28;20571;-45
2023/04/07 00:45:01;;;;;;;3.57;2.50;;;17.10;58.10;;;;;;5050833;28;20264;-45
2023/04/07 00:47:32;;;;;;;2.77;2.57;;;17.10;58.10;;;;;;5051271;28;20208;-45
2023/04/07 00:50:04;;;;;;;3.50;2.80;;;17.10;58.10;;;;;;5051193;28;20220;-46
2023/04/07 00:52:32;;;;;;;3.93;2.77;;;17.10;58.10;;;;;;5013690;28;20207;-45
2023/04/07 00:55:05;;;;;;;2.77;2.47;;;17.10;58.10;;;;;;5057950;28;20206;-45
2023/04/07 00:57:37;;;;;;;3.70;2.97;;;17.10;58.10;;;;;;5051311;28;20197;-45
2023/04/07 01:00:20;;;;;;;4.87;2.53;;;17.10;58.10;;;;;;5041706;28;20222;-45
2023/04/07 01:03:12;;;;;;;2.80;2.40;;;17.10;58.10;;;;;;5045010;28;20216;-46
2023/04/07 01:05:54;;;;;;;4.03;2.87;;;17.00;58.10;;;;;;5036098;28;20206;-45
2023/04/07 01:08:57;;;;;;;2.80;2.50;;;17.10;58.20;;;;;;5036106;28;20644;-46
2023/04/07 01:12:21;;;;;;;3.80;2.47;;;17.10;58.20;;;;;;5050554;28;20218;-46
2023/04/07 01:14:57;;;;;;;3.07;2.20;;;17.10;58.20;;;;;;5007758;28;20205;-46
2023/04/07 01:17:28;;;;;;;2.73;2.20;;;17.00;58.20;;;;;;5034897;28;20257;-45
2023/04/07 01:20:12;;;;;;;3.67;2.13;;;17.00;58.20;;;;;;5051167;28;20678;-45
2023/04/07 01:23:01;;;;;;;2.93;2.30;;;17.00;58.20;;;;;;5029785;28;20284;-45
2023/04/07 01:25:59;;;;;;;3.00;2.67;;;17.00;58.20;;;;;;5054474;28;20210;-45
2023/04/07 01:29:10;;;;;;;2.37;2.10;;;17.00;58.20;;;;;;5048607;28;20268;-45
2023/04/07 01:31:41;;;;;;;2.67;2.23;;;17.00;58.30;;;;;;5049395;28;20226;-45
2023/04/07 01:34:13;;;;;;;2.13;1.97;;;17.00;58.30;;;;;;5027734;28;20241;-45
2023/04/07 01:37:05;;;;;;;2.73;2.23;;;17.00;58.30;;;;;;5026796;28;20202;-45
2023/04/07 01:39:39;;;;;;;2.30;2.10;;;17.00;58.20;;;;;;5053798;28;20218;-45
2023/04/07 01:42:12;;;;;;;2.13;1.93;;;17.00;58.30;;;;;;5051064;28;20198;-45
2023/04/07 01:44:42;;;;;;;1.90;1.73;;;17.00;58.90;;;;;;5012268;28;20203;-45
2023/04/07 01:47:11;;;;;;;2.60;1.87;;;17.00;58.30;;;;;;5017422;28;20205;-45
2023/04/07 01:49:42;;;;;;;2.20;2.00;;;17.00;58.30;;;;;;5034241;28;20209;-45
2023/04/07 01:52:11;;;;;;;2.50;1.50;;;16.90;58.20;;;;;;5031411;28;20210;-45
2023/04/07 01:54:40;;;;;;;2.03;1.53;;;17.00;58.30;;;;;;5028043;28;20209;-45
2023/04/07 01:57:09;;;;;;;2.40;1.60;;;17.00;58.90;;;;;;5033170;28;20630;-45
2023/04/07 01:59:39;;;;;;;1.53;1.43;;;17.00;58.30;;;;;;5050291;28;20633;-45
2023/04/07 02:02:11;;;;;;;2.73;1.70;;;16.90;58.20;;;;;;5032697;28;20186;-45
2023/04/07 02:05:02;;;;;;;1.90;1.80;;;16.90;58.20;;;;;;5045727;28;20217;-45
2023/04/07 02:07:56;;;;;;;1.93;1.40;;;17.00;58.30;;;;;;5054539;28;20518;-45
2023/04/07 02:10:29;;;;;;;1.90;1.70;;;16.90;58.30;;;;;;5048485;28;20206;-45
2023/04/07 02:12:59;;;;;;;2.80;1.97;;;16.90;58.30;;;;;;5018426;28;20187;-45
2023/04/07 02:15:26;;;;;;;2.10;1.73;;;16.90;58.30;;;;;;5032872;28;20217;-46
2023/04/07 02:18:12;;;;;;;1.90;1.27;;;16.90;58.30;;;;;;5037258;28;20187;-45
2023/04/07 02:20:46;;;;;;;2.90;1.20;;;16.90;58.30;;;;;;5049628;28;20234;-45
2023/04/07 02:23:16;;;;;;;2.20;1.60;;;16.90;58.30;;;;;;5035802;28;20194;-45
2023/04/07 02:25:44;;;;;;;2.33;1.63;;;16.90;58.30;;;;;;5036623;28;20205;-45
2023/04/07 02:28:14;;;;;;;1.57;1.20;;;16.90;58.30;;;;;;5053078;28;20225;-45
2023/04/07 02:30:43;;;;;;;2.10;1.47;;;16.90;58.30;;;;;;5050054;28;20226;-45
2023/04/07 02:33:14;;;;;;;1.90;1.30;;;16.90;58.40;;;;;;5048583;28;20671;-46
2023/04/07 02:35:47;;;;;;;1.60;1.40;;;16.90;58.30;;;;;;5048908;28;20194;-46
2023/04/07 02:38:17;;;;;;;1.60;1.50;;;16.90;58.40;;;;;;5052150;28;20190;-46
2023/04/07 02:40:45;;;;;;;1.33;1.23;;;16.80;58.40;;;;;;5043734;28;20203;-45
2023/04/07 02:43:16;;;;;;;1.73;1.30;;;16.80;58.30;;;;;;5030983;28;20213;-45
2023/04/07 02:45:49;;;;;;;2.13;1.10;;;16.90;58.40;;;;;;5048786;28;20849;-45
2023/04/07 02:48:20;;;;;;;2.70;1.43;;;16.90;58.40;;;;;;5048834;28;20197;-45
2023/04/07 02:50:50;;;;;;;1.43;1.33;;;16.80;58.40;;;;;;5042557;28;20222;-45
2023/04/07 02:53:22;;;;;;;1.47;1.17;;;16.80;58.40;;;;;;5048977;28;20294;-45
2023/04/07 02:55:53;;;;;;;1.30;1.20;;;16.90;58.40;;;;;;5049430;28;20255;-45
2023/04/07 02:58:23;;;;;;;1.77;1.30;;;16.90;58.40;;;;;;5049563;28;20244;-45
2023/04/07 03:00:51;;;;;;;2.10;1.33;;;16.80;58.40;;;;;;5047587;28;20256;-45
2023/04/07 03:03:21;;;;;;;1.20;1.10;;;16.90;58.50;;;;;;5046634;28;20214;-45
2023/04/07 03:05:53;;;;;;;1.57;1.33;;;16.80;58.50;;;;;;5050104;28;20209;-45
2023/04/07 03:08:23;;;;;;;1.70;1.23;;;16.80;58.50;;;;;;5049376;28;20198;-45
2023/04/07 03:10:53;;;;;;;1.83;1.10;;;16.90;58.60;;;;;;5044964;28;20217;-45
2023/04/07 03:13:29;;;;;;;1.90;1.33;;;16.80;58.50;;;;;;5048548;28;20217;-45
2023/04/07 03:16:02;;;;;;;1.63;1.27;;;16.90;58.50;;;;;;5044769;28;20260;-45
2023/04/07 03:18:32;;;;;;;1.90;1.27;;;16.80;58.50;;;;;;5045702;28;20616;-45
2023/04/07 03:21:01;;;;;;;2.20;1.10;;;16.80;58.50;;;;;;5051166;28;20239;-45
2023/04/07 03:23:33;;;;;;;1.40;1.10;;;16.80;58.50;;;;;;5031721;28;20210;-45
2023/04/07 03:26:00;;;;;;;1.30;0.77;;;16.80;58.60;;;;;;5049084;28;20213;-45
2023/04/07 03:28:31;;;;;;;1.43;1.10;;;16.80;58.50;;;;;;5045711;28;20256;-45
2023/04/07 03:31:02;;;;;;;1.40;1.10;;;16.80;58.50;;;;;;5048220;28;20245;-47
2023/04/07 03:33:38;;;;;;;1.10;1.00;;;16.80;58.60;;;;;;5048832;28;20362;-45
2023/04/07 03:36:10;;;;;;;1.37;0.90;;;16.80;58.60;;;;;;5053161;28;20206;-45
2023/04/07 03:38:54;;;;;;;1.33;0.87;;;16.80;58.60;;;;;;5044857;28;20234;-45
2023/04/07 03:41:25;;;;;;;1.80;1.00;;;16.80;58.60;;;;;;5048275;28;20339;-46
2023/04/07 03:44:01;;;;;;;0.80;0.70;;;16.80;58.60;;;;;;5032298;28;20658;-46
2023/04/07 03:46:31;;;;;;;1.13;1.00;;;16.80;58.70;;;;;;5048208;28;20203;-46
2023/04/07 03:49:13;;;;;;;2.53;0.90;;;16.80;58.70;;;;;;5055310;28;20278;-45
2023/04/07 03:51:45;;;;;;;2.27;1.03;;;16.80;58.70;;;;;;5051056;28;20683;-45
2023/04/07 03:54:16;;;;;;;1.37;0.70;;;16.80;58.70;;;;;;5034703;28;20205;-45
2023/04/07 03:56:51;;;;;;;2.53;0.70;;;16.70;58.60;;;;;;5047187;28;20206;-46
2023/04/07 03:59:19;;;;;;;1.77;0.60;;;16.80;58.70;;;;;;5046883;28;20559;-45
2023/04/07 04:01:51;;;;;;;1.20;1.00;;;16.80;58.70;;;;;;5052210;28;20386;-45
2023/04/07 04:04:20;;;;;;;1.17;1.00;;;16.80;58.70;;;;;;5053407;28;20216;-45
2023/04/07 04:06:52;;;;;;;0.90;0.90;;;16.80;58.70;;;;;;5050039;28;20663;-46
2023/04/07 04:09:24;;;;;;;2.17;1.03;;;16.80;58.70;;;;;;5046077;28;20263;-45
2023/04/07 04:11:57;;;;;;;1.07;0.77;;;16.70;58.70;;;;;;5051439;28;20602;-45
2023/04/07 04:14:26;;;;;;;0.83;0.80;;;16.70;59.30;;;;;;5052160;28;20229;-46
2023/04/07 04:16:57;;;;;;;1.03;0.83;;;16.70;58.80;;;;;;5050987;28;20186;-45
2023/04/07 04:19:31;;;;;;;1.27;0.67;;;16.70;58.70;;;;;;5055179;28;20248;-45
2023/04/07 04:22:04;;;;;;;0.73;0.70;;;16.70;58.80;;;;;;5051180;28;20199;-45
2023/04/07 04:24:34;;;;;;;0.80;0.70;;;16.70;58.70;;;;;;5031602;28;20272;-45
2023/04/07 04:27:06;;;;;;;1.73;1.00;;;16.80;58.80;;;;;;5049150;28;20210;-45
2023/04/07 04:29:37;;;;;;;1.37;0.87;;;16.70;58.70;;;;;;5051966;28;20206;-46
2023/04/07 04:32:03;;;;;;;0.70;0.70;;;16.70;58.70;;;;;;5034020;28;20214;-45
2023/04/07 04:34:34;;;;;;;1.40;1.00;;;16.70;58.70;;;;;;5052582;28;20210;-45
2023/04/07 04:37:04;;;;;;;1.43;1.00;;;16.70;58.70;;;;;;5051716;28;20201;-45
2023/04/07 04:39:42;;;;;;;0.80;0.60;;;16.70;58.80;;;;;;5032932;28;20220;-45
2023/04/07 04:42:10;;;;;;;1.80;1.00;;;16.70;58.70;;;;;;5050666;28;20263;-45
2023/04/07 04:44:39;;;;;;;1.20;0.80;;;16.70;58.80;;;;;;5049090;28;20210;-45
2023/04/07 04:47:07;;;;;;;5.27;2.20;;;16.70;58.80;;;;;;5039439;28;20240;-45
2023/04/07 04:49:36;;;;;;;12.23;2.67;;;16.70;59.10;;;;;;5037359;28;20198;-45
2023/04/07 04:52:06;;;;;;;10.20;3.73;;;16.70;59.40;;;;;;5048833;28;20238;-45
2023/04/07 04:54:35;;;;;;;9.63;2.80;;;16.70;59.30;;;;;;5048384;28;20193;-45
2023/04/07 04:57:07;;;;;;;10.10;3.50;;;16.70;59.30;;;;;;5050900;28;20202;-46
2023/04/07 04:59:41;;;;;;;6.37;3.17;;;16.70;59.20;;;;;;5051332;28;20563;-45
2023/04/07 05:02:11;;;;;;;7.23;3.20;;;16.70;59.10;;;;;;5036479;28;20212;-45
2023/04/07 05:04:43;;;;;;;6.80;2.40;;;16.70;59.10;;;;;;5045149;28;20198;-45
2023/04/07 05:07:14;;;;;;;10.07;2.40;;;16.70;59.40;;;;;;5050237;28;20280;-45
2023/04/07 05:09:43;;;;;;;6.63;2.53;;;16.70;59.50;;;;;;5050811;28;20255;-45
2023/04/07 05:12:11;;;;;;;5.10;2.03;;;16.70;59.70;;;;;;5050829;28;20280;-45
2023/04/07 05:14:44;;;;;;;4.97;2.30;;;16.80;59.90;;;;;;5045906;28;20206;-45
2023/04/07 05:17:13;;;;;;;5.70;2.00;;;16.80;59.80;;;;;;5055214;28;20186;-45
2023/04/07 05:19:42;;;;;;;4.87;1.53;;;16.80;59.70;;;;;;5051025;28;20246;-45
2023/04/07 05:22:11;;;;;;;8.97;2.13;;;16.80;59.50;;;;;;5033908;28;20202;-45
2023/04/07 05:24:42;;;;;;;6.00;1.80;;;16.70;59.30;;;;;;5030072;28;20198;-45
2023/04/07 05:27:10;;;;;;;4.53;1.50;;;16.80;59.40;;;;;;5031354;28;20207;-45
2023/04/07 05:29:41;;;;;;;5.80;2.13;;;16.70;59.30;;;;;;5050990;28;20277;-45
2023/04/07 05:32:14;;;;;;;4.47;1.97;;;16.70;59.20;;;;;;5056513;28;20210;-45
2023/04/07 05:34:45;;;;;;;3.17;1.67;;;16.70;59.10;;;;;;5047141;28;20214;-45
2023/04/07 05:37:15;;;;;;;4.47;1.80;;;16.80;59.20;;;;;;5050153;28;20211;-45
2023/04/07 05:39:45;;;;;;;3.33;1.50;;;16.70;59.10;;;;;;5048553;28;20214;-45
2023/04/07 05:42:15;;;;;;;2.93;1.50;;;16.70;59.10;;;;;;5044558;28;20186;-45
2023/04/07 05:44:44;;;;;;;2.90;1.80;;;16.70;59.00;;;;;;5047189;28;20244;-45
2023/04/07 05:47:15;;;;;;;1.93;1.20;;;16.70;58.90;;;;;;5054736;28;20190;-45
2023/04/07 05:49:48;;;;;;;3.53;1.80;;;16.70;59.00;;;;;;5050561;28;20206;-45
2023/04/07 05:52:19;;;;;;;5.43;1.77;;;16.70;58.90;;;;;;5047957;28;20237;-45
2023/04/07 05:54:50;;;;;;;4.27;1.90;;;16.70;58.90;;;;;;5046888;28;20887;-45
2023/04/07 05:57:26;;;;;;;1.97;1.37;;;16.70;58.90;;;;;;5033682;28;20286;-45
2023/04/07 05:59:56;;;;;;;4.07;1.37;;;16.70;58.90;;;;;;5049708;28;20651;-45
2023/04/07 06:02:28;;;;;;;6.63;1.93;;;16.70;58.80;;;;;;5047998;28;20203;-45
2023/04/07 06:04:59;;;;;;;2.87;1.87;;;16.70;58.90;;;;;;5050279;28;20206;-45
2023/04/07 06:07:29;;;;;;;3.63;1.30;;;16.70;58.90;;;;;;5050367;28;20206;-47
2023/04/07 06:09:59;;;;;;;4.27;1.97;;;16.70;58.80;;;;;;5050068;28;20522;-45
2023/04/07 06:12:33;;;;;;;2.97;1.33;;;16.70;58.80;;;;;;5031557;28;20229;-45
2023/04/07 06:15:05;;;;;;;4.13;1.63;;;16.70;58.80;;;;;;5046787;28;20694;-45
2023/04/07 06:17:36;;;;;;;5.13;2.23;;;16.80;58.80;;;;;;5049740;28;20574;-45
2023/04/07 06:20:12;;;;;;;5.07;2.27;;;16.70;58.80;;;;;;5049691;28;20238;-45
2023/04/07 06:22:43;;;;;;;4.43;2.17;;;16.70;58.70;;;;;;5047295;28;20229;-46
2023/04/07 06:25:20;;;;;;;7.20;1.80;;;16.70;58.80;;;;;;5049742;28;20209;-45
2023/04/07 06:27:52;;;;;;;3.53;1.83;;;16.70;58.80;;;;;;5030014;28;20583;-46
2023/04/07 06:30:23;;;;;;;3.73;2.07;;;16.70;58.80;;;;;;5034378;28;20234;-46
2023/04/07 06:32:55;;;;;;;3.47;1.77;;;16.70;58.80;;;;;;5047700;28;20226;-45
2023/04/07 06:35:26;;;;;;;3.87;2.30;;;16.70;58.80;;;;;;5049529;28;20190;-45
2023/04/07 06:37:55;;;;;;;3.37;2.20;;;16.70;58.80;;;;;;5049273;28;20199;-45
2023/04/07 06:40:26;;;;;;;4.60;2.13;;;16.70;58.80;;;;;;5047071;28;20214;-45
2023/04/07 06:42:57;;;;;;;4.23;2.00;;;16.70;58.70;;;;;;5033743;28;20602;-45
2023/04/07 06:45:38;;;;;;;5.00;2.40;;;16.70;58.80;;;;;;5057000;28;20217;-45
2023/04/07 06:48:10;;;;;;;4.97;2.37;;;16.70;58.70;;;;;;5040139;28;20197;-45
2023/04/07 06:50:44;;;;;;;3.20;2.20;;;16.70;58.80;;;;;;5046753;28;20209;-45
2023/04/07 06:53:25;;;;;;;4.10;2.00;;;16.70;58.70;;;;;;5051783;28;20213;-46
2023/04/07 06:56:10;;;;;;;5.37;2.73;;;16.70;58.80;;;;;;5046500;28;20852;-46
2023/04/07 06:58:41;;;;;;;3.83;2.50;;;16.70;58.80;;;;;;5031085;28;20198;-45
2023/04/07 07:01:11;;;;;;;6.20;3.07;;;16.70;58.80;;;;;;5043901;28;20767;-45
2023/04/07 07:03:43;;;;;;;5.23;2.47;;;16.70;58.80;;;;;;5053390;28;20210;-45
2023/04/07 07:06:15;;;;;;;4.53;2.20;;;16.70;58.70;;;;;;5053595;28;20202;-45
2023/04/07 07:08:45;;;;;;;4.27;2.33;;;16.70;58.70;;;;;;5048307;28;20199;-45
2023/04/07 07:11:17;;;;;;;4.90;2.27;;;16.70;58.70;;;;;;5049474;28;20225;-45
2023/04/07 07:13:48;;;;;;;4.60;2.50;;;16.70;58.80;;;;;;5049651;28;20206;-45
2023/04/07 07:16:29;;;;;;;3.83;2.13;;;16.70;58.80;;;;;;5049737;28;20635;-45
2023/04/07 07:18:58;;;;;;;5.30;2.73;;;16.70;58.70;;;;;;5047948;28;20275;-45
2023/04/07 07:21:27;;;;;;;4.43;2.27;;;16.70;58.80;;;;;;5048459;28;20269;-45
2023/04/07 07:23:58;;;;;;;3.57;2.27;;;16.70;58.80;;;;;;5048545;28;20264;-45
2023/04/07 07:26:27;;;;;;;4.17;2.20;;;16.70;58.70;;;;;;5047494;28;20209;-45
2023/04/07 07:28:59;;;;;;;5.17;2.07;;;16.70;58.70;;;;;;5046261;28;20268;-45
2023/04/07 07:31:30;;;;;;;4.63;2.17;;;16.70;58.70;;;;;;5049116;28;20221;-45
2023/04/07 07:34:00;;;;;;;4.97;2.70;;;16.70;58.70;;;;;;5048484;28;20479;-45
2023/04/07 07:36:27;;;;;;;7.00;2.20;;;16.70;58.70;;;;;;5047804;28;20201;-45
2023/04/07 07:38:54;;;;;;;3.57;2.37;;;16.70;58.70;;;;;;5046261;28;20865;-45
2023/04/07 07:41:25;;;;;;;4.13;2.10;;;16.70;58.70;;;;;;5048486;28;20202;-45
2023/04/07 07:43:57;;;;;;;4.53;2.23;;;16.70;58.60;;;;;;5048803;28;20202;-45
2023/04/07 07:46:27;;;;;;;4.30;1.77;;;16.70;58.70;;;;;;5043124;28;20198;-45
2023/04/07 07:48:57;;;;;;;4.70;1.67;;;16.70;58.60;;;;;;5048543;28;20194;-46
2023/04/07 07:51:34;;;;;;;3.30;1.93;;;16.70;58.60;;;;;;5028817;28;20218;-45
2023/04/07 07:54:05;;;;;;;3.23;1.67;;;16.70;58.60;;;;;;5048736;28;20533;-45
2023/04/07 07:56:37;;;;;;;4.03;1.83;;;16.80;58.70;;;;;;5044198;28;20213;-46
2023/04/07 07:59:06;;;;;;;3.27;1.87;;;16.70;58.70;;;;;;5042624;28;20584;-45
2023/04/07 08:01:35;;;;;;;2.27;1.47;;;16.70;58.60;;;;;;5023960;28;20651;-45
2023/04/07 08:04:07;;;;;;;4.13;1.93;;;16.70;58.70;;;;;;5046300;28;20236;-46
2023/04/07 08:06:39;;;;;;;4.23;1.53;;;16.70;58.70;;;;;;5035727;28;20206;-46
2023/04/07 08:09:24;;;;;;;2.57;1.43;;;16.70;58.70;;;;;;5047951;28;20289;-46
2023/04/07 08:11:55;;;;;;;2.37;1.50;;;16.70;58.60;;;;;;5049398;28;20549;-45
2023/04/07 08:14:25;;;;;;;3.33;1.73;;;16.70;58.60;;;;;;5052003;28;20198;-46
2023/04/07 08:16:53;;;;;;;3.53;1.73;;;16.80;58.70;;;;;;5046734;28;20601;-45
2023/04/07 08:19:22;;;;;;;2.83;1.60;;;16.80;58.70;;;;;;5049779;28;20207;-45
2023/04/07 08:22:05;;;;;;;4.20;2.20;;;16.80;58.60;;;;;;5050629;28;20220;-45
2023/04/07 08:24:34;;;;;;;1.70;1.60;;;16.80;58.60;;;;;;5030474;28;20606;-45
2023/04/07 08:27:03;;;;;;;3.17;1.50;;;16.80;58.60;;;;;;5048373;28;20656;-45
2023/04/07 08:29:35;;;;;;;3.83;1.67;;;16.70;58.60;;;;;;5058206;28;20217;-45
2023/04/07 08:32:06;;;;;;;2.77;1.50;;;16.80;58.60;;;;;;5056984;28;20314;-45
2023/04/07 08:34:34;;;;;;;5.17;1.80;;;16.80;58.60;;;;;;5059896;28;20190;-45
2023/04/07 08:37:08;;;;;;;2.87;1.40;;;16.70;58.50;;;;;;5060338;28;20210;-45
2023/04/07 08:39:40;;;;;;;2.53;1.40;;;16.80;58.60;;;;;;5054321;28;20288;-45
2023/04/07 08:42:12;;;;;;;3.33;1.37;;;16.80;58.60;;;;;;5038429;28;20527;-46
2023/04/07 08:44:51;;;;;;;2.20;1.40;;;16.80;58.60;;;;;;5036720;28;20203;-45
2023/04/07 08:47:26;;;;;;;2.60;1.40;;;16.80;58.60;;;;;;5037129;28;20191;-46
2023/04/07 08:50:00;;;;;;;1.83;1.43;;;16.80;58.60;;;;;;5036566;28;20226;-45
2023/04/07 08:52:48;;;;;;;2.30;1.30;;;16.80;58.50;;;;;;5047605;28;20319;-45
2023/04/07 08:55:16;;;;;;;4.07;1.97;;;16.80;58.70;;;;;;5033396;28;20205;-46
2023/04/07 08:57:48;;;;;;;2.20;1.40;;;16.80;58.60;;;;;;5056306;28;20201;-46
2023/04/07 09:00:22;;;;;;;3.10;1.40;;;16.80;58.60;;;;;;5017471;28;20225;-45
2023/04/07 09:02:50;;;;;;;3.07;1.50;;;16.80;58.60;;;;;;5046529;28;20594;-45
2023/04/07 09:05:23;;;;;;;1.80;1.60;;;16.80;58.60;;;;;;5034259;28;20199;-45
2023/04/07 09:07:53;;;;;;;1.83;1.53;;;16.80;58.50;;;;;;5050933;28;20209;-45
2023/04/07 09:10:21;;;;;;;2.97;1.53;;;16.80;58.60;;;;;;5051344;28;20191;-45
2023/04/07 09:12:52;;;;;;;3.23;1.67;;;16.80;58.50;;;;;;5050712;28;20272;-45
2023/04/07 09:15:21;;;;;;;2.07;1.20;;;16.80;58.50;;;;;;5040077;28;20221;-45
2023/04/07 09:17:51;;;;;;;2.23;1.40;;;16.80;58.50;;;;;;5051254;28;20281;-45
2023/04/07 09:20:21;;;;;;;2.93;1.77;;;16.80;58.50;;;;;;5050998;28;20264;-45
2023/04/07 09:22:49;;;;;;;3.57;1.50;;;16.80;58.40;;;;;;5048877;28;20513;-45
2023/04/07 09:25:29;;;;;;;2.43;1.47;;;16.80;58.50;;;;;;5033499;28;20205;-45
2023/04/07 09:28:09;;;;;;;2.33;1.77;;;16.80;58.40;;;;;;5036341;28;20218;-45
2023/04/07 09:30:52;;;;;;;1.90;1.50;;;16.80;58.40;;;;;;5048669;28;20210;-45
2023/04/07 09:33:47;;;;;;;1.70;1.20;;;16.80;58.50;;;;;;5036110;28;20222;-45
2023/04/07 09:36:19;;;;;;;2.03;1.60;;;16.80;58.50;;;;;;5034746;28;20194;-46
2023/04/07 09:38:47;;;;;;;2.23;1.20;;;16.80;58.50;;;;;;5046260;28;20202;-45
2023/04/07 09:41:20;;;;;;;2.00;1.43;;;16.80;58.40;;;;;;5055188;28;20642;-45
2023/04/07 09:43:57;;;;;;;2.80;1.17;;;16.80;58.40;;;;;;5039903;28;20391;-45
2023/04/07 09:46:28;;;;;;;1.80;1.20;;;16.80;58.40;;;;;;5031866;28;20213;-45
2023/04/07 09:49:08;;;;;;;2.10;1.10;;;16.80;58.50;;;;;;5051414;28;20212;-45
2023/04/07 09:52:06;;;;;;;1.30;1.00;;;16.90;58.40;;;;;;5050325;28;20241;-45
2023/04/07 09:54:38;;;;;;;3.17;1.40;;;16.80;58.40;;;;;;5049626;28;20195;-45
2023/04/07 09:57:12;;;;;;;2.10;1.33;;;16.80;58.50;;;;;;5053701;28;20217;-45
2023/04/07 09:59:45;;;;;;;2.57;1.20;;;16.80;58.50;;;;;;5050464;28;20235;-45
2023/04/07 10:02:17;;;;;;;1.87;1.10;;;16.90;58.50;;;;;;5052034;28;20651;-45
2023/04/07 10:04:48;;;;;;;1.60;1.23;;;16.90;58.50;;;;;;5029891;28;20225;-45
2023/04/07 10:07:18;;;;;;;1.73;1.40;;;16.90;58.50;;;;;;5034134;28;20210;-45
2023/04/07 10:09:46;;;;;;;2.47;1.33;;;16.90;58.50;;;;;;5033491;28;20248;-45
2023/04/07 10:12:32;;;;;;;3.13;1.20;;;16.90;58.40;;;;;;5031719;28;20305;-45
2023/04/07 10:15:05;;;;;;;2.67;1.27;;;16.90;58.40;;;;;;5048847;28;20232;-45
2023/04/07 10:17:45;;;;;;;2.50;1.67;;;16.90;58.40;;;;;;5033787;28;20281;-45
2023/04/07 10:20:23;;;;;;;2.33;1.10;;;16.90;58.40;;;;;;5019486;28;20234;-45
2023/04/07 10:23:08;;;;;;;1.70;1.03;;;16.90;58.40;;;;;;5035683;28;20199;-45
2023/04/07 10:25:41;;;;;;;3.53;1.50;;;16.90;58.50;;;;;;5038925;28;20201;-45
2023/04/07 10:28:12;;;;;;;1.20;1.10;;;16.90;58.50;;;;;;5032056;28;20203;-45
2023/04/07 10:30:44;;;;;;;3.57;1.30;;;16.90;58.50;;;;;;5049783;28;20214;-45
2023/04/07 10:33:17;;;;;;;2.90;1.30;;;16.90;58.50;;;;;;5045844;28;20303;-45
2023/04/07 10:36:07;;;;;;;2.67;1.10;;;16.90;58.40;;;;;;5041565;28;20693;-45
2023/04/07 10:38:36;;;;;;;2.23;1.53;;;16.90;58.50;;;;;;5045967;28;20603;-46
2023/04/07 10:41:36;;;;;;;2.23;1.00;;;16.90;58.40;;;;;;5052719;28;20205;-46
2023/04/07 10:44:45;;;;;;;3.70;1.47;;;17.00;58.60;;;;;;5025616;28;20198;-45
2023/04/07 10:47:17;;;;;;;3.67;1.37;;;17.00;58.60;;;;;;5034017;28;20223;-45
2023/04/07 10:50:27;;;;;;;1.60;1.00;;;16.90;58.40;;;;;;5050185;28;20206;-45
2023/04/07 10:53:13;;;;;;;1.67;1.03;;;17.00;58.50;;;;;;5047232;28;20214;-45
2023/04/07 10:55:53;;;;;;;2.00;1.17;;;16.90;58.50;;;;;;5037667;28;20206;-46
2023/04/07 10:58:30;;;;;;;2.40;1.20;;;17.00;58.50;;;;;;5035826;28;20213;-45
2023/04/07 11:01:17;;;;;;;1.93;1.03;;;17.00;58.50;;;;;;5051183;28;20210;-45
2023/04/07 11:03:57;;;;;;;2.13;1.20;;;16.90;58.40;;;;;;5049863;28;20198;-45
2023/04/07 11:06:33;;;;;;;1.90;0.90;;;17.00;58.50;;;;;;5033966;28;20197;-45
2023/04/07 11:09:04;;;;;;;2.00;0.90;;;17.00;58.50;;;;;;5056701;28;20186;-45
2023/04/07 11:11:41;;;;;;;1.20;0.90;;;17.00;58.50;;;;;;5052448;28;20187;-45
2023/04/07 11:14:23;;;;;;;2.63;1.10;;;17.00;58.50;;;;;;5052049;28;20218;-45
2023/04/07 11:17:22;;;;;;;1.23;1.10;;;16.90;58.40;;;;;;5026598;28;20247;-45
2023/04/07 11:19:56;;;;;;;2.00;0.77;;;17.00;58.50;;;;;;5054247;28;20229;-45
2023/04/07 11:22:26;;;;;;;3.73;1.33;;;17.00;58.40;;;;;;5053774;28;20203;-46
2023/04/07 11:25:00;;;;;;;3.03;1.67;;;17.00;58.50;;;;;;5061140;28;20206;-45
2023/04/07 11:27:37;;;;;;;2.83;1.37;;;17.00;58.50;;;;;;5052778;28;20202;-45
2023/04/07 11:30:09;;;;;;;3.67;1.27;;;17.00;58.50;;;;;;5057284;28;20619;-45
2023/04/07 11:33:06;;;;;;;2.40;1.10;;;17.00;58.60;;;;;;5055704;28;20202;-45
2023/04/07 11:35:37;;;;;;;1.73;1.13;;;17.00;58.60;;;;;;5055301;28;20277;-47
2023/04/07 11:38:11;;;;;;;3.23;1.10;;;17.00;58.50;;;;;;5060092;28;20259;-45
2023/04/07 11:40:47;;;;;;;2.47;1.30;;;17.00;58.50;;;;;;5047653;28;20205;-45
2023/04/07 11:43:40;;;;;;;1.17;0.90;;;17.00;58.50;;;;;;5050122;28;20279;-45
2023/04/07 11:46:20;;;;;;;3.03;1.57;;;17.00;58.50;;;;;;5048855;28;20194;-46
2023/04/07 11:48:52;;;;;;;3.43;1.60;;;17.00;58.50;;;;;;5030592;28;20240;-45
2023/04/07 11:51:26;;;;;;;2.70;1.20;;;17.00;58.50;;;;;;5046472;28;20268;-45
2023/04/07 11:53:59;;;;;;;2.00;1.20;;;17.00;58.40;;;;;;5049644;28;20671;-45
2023/04/07 11:56:26;;;;;;;2.07;1.13;;;17.00;58.40;;;;;;5047670;28;20210;-45
2023/04/07 11:58:58;;;;;;;0.93;0.80;;;17.00;58.40;;;;;;5049255;28;20199;-45
2023/04/07 12:01:40;;;;;;;1.70;0.93;;;17.00;58.40;;;;;;5048403;28;20202;-46
2023/04/07 12:04:17;;;;;;;3.47;1.50;;;17.00;58.40;;;;;;5046451;28;20218;-45
2023/04/07 12:06:48;;;;;;;0.93;0.70;;;17.00;58.40;;;;;;5049122;28;20691;-45
2023/04/07 12:09:31;;;;;;;3.27;1.10;;;17.10;58.40;;;;;;5038230;28;20183;-45
2023/04/07 12:11:58;;;;;;;1.77;0.90;;;17.00;58.40;;;;;;5052259;28;20198;-45
2023/04/07 12:14:30;;;;;;;1.77;1.10;;;17.10;58.50;;;;;;5037022;28;20224;-46
2023/04/07 12:17:06;;;;;;;4.17;1.20;;;17.10;58.40;;;;;;5052067;28;20198;-45
2023/04/07 12:19:38;;;;;;;2.63;1.10;;;17.00;58.40;;;;;;5039521;28;20225;-45
2023/04/07 12:22:17;;;;;;;1.97;0.97;;;17.10;59.00;;;;;;5057551;28;20190;-46
2023/04/07 12:24:52;;;;;;;2.93;1.30;;;17.10;58.40;;;;;;5034911;28;20198;-45
2023/04/07 12:27:20;;;;;;;3.20;1.10;;;17.10;58.40;;;;;;5049919;28;20206;-45
2023/04/07 12:30:08;;;;;;;2.27;1.20;;;17.10;58.40;;;;;;5052008;28;20225;-45
2023/04/07 12:32:37;;;;;;;3.47;1.40;;;17.10;58.50;;;;;;5049801;28;20202;-45
2023/04/07 12:35:08;;;;;;;2.50;1.10;;;17.10;58.40;;;;;;5051737;28;20539;-45
2023/04/07 12:37:38;;;;;;;3.07;1.40;;;17.10;58.40;;;;;;5054758;28;20205;-46
2023/04/07 12:40:11;;;;;;;2.87;1.20;;;17.10;59.00;;;;;;5049771;28;20755;-45
2023/04/07 12:42:42;;;;;;;3.33;1.00;;;17.10;58.40;;;;;;5049987;28;20538;-45
2023/04/07 12:45:12;;;;;;;5.10;1.43;;;17.10;58.40;;;;;;5051732;28;20234;-46
2023/04/07 12:47:45;;;;;;;1.97;1.03;;;17.10;58.50;;;;;;5052370;28;20519;-45
2023/04/07 12:50:19;;;;;;;3.20;1.10;;;17.10;58.40;;;;;;5051658;28;20198;-45
2023/04/07 12:52:51;;;;;;;4.00;0.83;;;17.10;58.40;;;;;;5040785;28;20234;-45
2023/04/07 12:55:21;;;;;;;3.87;1.50;;;17.10;58.40;;;;;;5024675;28;20202;-46
2023/04/07 12:57:50;;;;;;;1.83;1.10;;;17.10;58.40;;;;;;4998455;28;20862;-46
2023/04/07 13:00:20;;;;;;;2.90;1.40;;;17.10;58.30;;;;;;5042995;28;20195;-45
2023/04/07 13:02:51;;;;;;;2.80;1.50;;;17.10;58.40;;;;;;5048232;28;20249;-46
2023/04/07 13:05:23;;;;;;;2.90;1.30;;;17.10;58.40;;;;;;5056592;28;20198;-46
2023/04/07 13:07:51;;;;;;;1.60;1.10;;;17.10;58.40;;;;;;5052726;28;20203;-46
2023/04/07 13:10:21;;;;;;;2.83;1.27;;;17.10;58.30;;;;;;5052090;28;20225;-46
2023/04/07 13:12:52;;;;;;;2.30;1.20;;;17.10;58.30;;;;;;5040059;28;20593;-45
2023/04/07 13:15:24;;;;;;;2.60;1.03;;;17.10;58.30;;;;;;5049138;28;20279;-46
2023/04/07 13:17:55;;;;;;;2.53;1.10;;;17.10;58.40;;;;;;5049636;28;20195;-46
2023/04/07 13:20:27;;;;;;;3.00;1.30;;;17.10;58.40;;;;;;5050534;28;20260;-45